sensor_id;sensor_type;location;lat;lon;timestamp;pressure;altitude;pressure_sealevel;temperature;humidity
75317;BME280;63913;51.492;10.368;2023-09-08T00:00:31;98848.84;;;19.87;66.21
75317;BME280;63913;51.492;10.368;2023-09-08T00:02:57;98854.19;;;19.74;66.30
75317;BME280;63913;51.492;10.368;2023-09-08T00:05:22;98854.38;;;19.52;67.53
75317;BME280;63913;51.492;10.368;2023-09-08T00:07:47;98854.47;;;19.35;68.17
75317;BME280;63913;51.492;10.368;2023-09-08T00:10:13;98863.22;;;19.25;68.20
75317;BME280;63913;51.492;10.368;2023-09-08T00:12:38;98865.97;;;18.99;69.19
75317;BME280;63913;51.492;10.368;2023-09-08T00:15:05;98859.00;;;19.04;69.52
75317;BME280;63913;51.492;10.368;2023-09-08T00:17:30;98859.06;;;18.95;69.77
75317;BME280;63913;51.492;10.368;2023-09-08T00:19:57;98861.66;;;18.96;69.67
75317;BME280;63913;51.492;10.368;2023-09-08T00:22:22;98855.56;;;18.97;69.60
75317;BME280;63913;51.492;10.368;2023-09-08T00:24:47;98859.94;;;18.95;69.95
75317;BME280;63913;51.492;10.368;2023-09-08T00:27:13;98862.53;;;18.92;69.92
75317;BME280;63913;51.492;10.368;2023-09-08T00:29:39;98861.72;;;18.81;70.23
75317;BME280;63913;51.492;10.368;2023-09-08T00:32:04;98861.75;;;18.77;70.11
75317;BME280;63913;51.492;10.368;2023-09-08T00:34:30;98859.16;;;18.80;70.28
75317;BME280;63913;51.492;10.368;2023-09-08T00:36:56;98863.53;;;18.72;71.13
75317;BME280;63913;51.492;10.368;2023-09-08T00:39:21;98857.44;;;18.65;71.18
75317;BME280;63913;51.492;10.368;2023-09-08T00:41:47;98855.72;;;18.70;70.64
75317;BME280;63913;51.492;10.368;2023-09-08T00:44:12;98848.78;;;18.66;71.10
75317;BME280;63913;51.492;10.368;2023-09-08T00:46:38;98851.38;;;18.66;71.37
75317;BME280;63913;51.492;10.368;2023-09-08T00:49:04;98848.78;;;18.66;71.41
75317;BME280;63913;51.492;10.368;2023-09-08T00:51:30;98851.38;;;18.71;71.37
75317;BME280;63913;51.492;10.368;2023-09-08T00:53:56;98847.97;;;18.56;72.34
75317;BME280;63913;51.492;10.368;2023-09-08T00:56:22;98851.41;;;18.57;72.29
75317;BME280;63913;51.492;10.368;2023-09-08T00:58:48;98849.66;;;18.56;71.89
75317;BME280;63913;51.492;10.368;2023-09-08T01:01:13;98852.28;;;18.56;72.21
75317;BME280;63913;51.492;10.368;2023-09-08T01:03:39;98847.06;;;18.57;71.97
75317;BME280;63913;51.492;10.368;2023-09-08T01:06:05;98853.09;;;18.65;71.67
75317;BME280;63913;51.492;10.368;2023-09-08T01:08:31;98846.19;;;18.64;71.57
75317;BME280;63913;51.492;10.368;2023-09-08T01:10:56;98853.06;;;18.78;70.83
75317;BME280;63913;51.492;10.368;2023-09-08T01:13:22;98850.47;;;18.76;70.88
75317;BME280;63913;51.492;10.368;2023-09-08T01:15:49;98849.56;;;18.86;70.16
75317;BME280;63913;51.492;10.368;2023-09-08T01:18:14;98841.69;;;18.91;70.41
75317;BME280;63913;51.492;10.368;2023-09-08T01:20:48;98849.50;;;18.97;70.31
75317;BME280;63913;51.492;10.368;2023-09-08T01:23:38;98847.72;;;18.99;70.06
75317;BME280;63913;51.492;10.368;2023-09-08T01:26:09;98837.34;;;18.91;70.11
75317;BME280;63913;51.492;10.368;2023-09-08T01:28:36;98842.59;;;18.88;70.36
75317;BME280;63913;51.492;10.368;2023-09-08T01:31:02;98846.03;;;18.93;70.07
75317;BME280;63913;51.492;10.368;2023-09-08T01:33:28;98842.59;;;18.88;70.20
75317;BME280;63913;51.492;10.368;2023-09-08T01:35:54;98839.09;;;18.91;69.91
75317;BME280;63913;51.492;10.368;2023-09-08T01:38:21;98842.59;;;18.84;70.40
75317;BME280;63913;51.492;10.368;2023-09-08T01:40:47;98849.56;;;18.85;70.44
75317;BME280;63913;51.492;10.368;2023-09-08T01:43:12;98846.91;;;18.89;70.30
75317;BME280;63913;51.492;10.368;2023-09-08T01:45:37;98848.63;;;18.95;69.92
75317;BME280;63913;51.492;10.368;2023-09-08T01:48:03;98842.56;;;18.91;69.91
75317;BME280;63913;51.492;10.368;2023-09-08T01:50:29;98844.31;;;18.92;70.10
75317;BME280;63913;51.492;10.368;2023-09-08T01:52:55;98841.69;;;18.91;69.98
75317;BME280;63913;51.492;10.368;2023-09-08T01:55:21;98842.56;;;18.91;70.06
75317;BME280;63913;51.492;10.368;2023-09-08T01:57:47;98840.00;;;18.84;69.99
75317;BME280;63913;51.492;10.368;2023-09-08T02:00:12;98837.34;;;18.90;70.23
75317;BME280;63913;51.492;10.368;2023-09-08T02:02:38;98838.25;;;18.89;69.91
75317;BME280;63913;51.492;10.368;2023-09-08T02:05:04;98834.78;;;18.85;70.01
75317;BME280;63913;51.492;10.368;2023-09-08T02:07:30;98842.66;;;18.78;70.06
75317;BME280;63913;51.492;10.368;2023-09-08T02:09:56;98838.34;;;18.72;70.20
75317;BME280;63913;51.492;10.368;2023-09-08T02:12:22;98839.19;;;18.76;70.30
75317;BME280;63913;51.492;10.368;2023-09-08T02:14:47;98845.22;;;18.82;70.49
75317;BME280;63913;51.492;10.368;2023-09-08T02:17:12;98840.03;;;18.78;69.96
75317;BME280;63913;51.492;10.368;2023-09-08T02:19:38;98833.97;;;18.76;70.41
75317;BME280;63913;51.492;10.368;2023-09-08T02:22:03;98832.22;;;18.78;70.81
75317;BME280;63913;51.492;10.368;2023-09-08T02:24:29;98835.75;;;18.72;70.59
75317;BME280;63913;51.492;10.368;2023-09-08T02:26:54;98840.03;;;18.73;70.82
75317;BME280;63913;51.492;10.368;2023-09-08T02:29:20;98827.97;;;18.61;70.93
75317;BME280;63913;51.492;10.368;2023-09-08T02:31:45;98841.81;;;18.70;70.70
75317;BME280;63913;51.492;10.368;2023-09-08T02:34:12;98832.25;;;18.72;71.06
75317;BME280;63913;51.492;10.368;2023-09-08T02:36:38;98829.63;;;18.73;70.57
75317;BME280;63913;51.492;10.368;2023-09-08T02:39:04;98827.94;;;18.69;70.38
75317;BME280;63913;51.492;10.368;2023-09-08T02:41:29;98822.69;;;18.77;70.63
75317;BME280;63913;51.492;10.368;2023-09-08T02:43:55;98824.44;;;18.68;70.45
75317;BME280;63913;51.492;10.368;2023-09-08T02:46:20;98815.72;;;18.74;70.14
75317;BME280;63913;51.492;10.368;2023-09-08T02:48:46;98822.72;;;18.69;70.04
75317;BME280;63913;51.492;10.368;2023-09-08T02:51:12;98820.97;;;18.70;70.03
75317;BME280;63913;51.492;10.368;2023-09-08T02:53:37;98814.03;;;18.65;70.32
75317;BME280;63913;51.492;10.368;2023-09-08T02:56:03;98825.31;;;18.67;70.32
75317;BME280;63913;51.492;10.368;2023-09-08T02:58:31;98822.75;;;18.64;70.48
75317;BME280;63913;51.492;10.368;2023-09-08T03:01:13;98817.53;;;18.60;70.44
75317;BME280;63913;51.492;10.368;2023-09-08T03:03:40;98815.81;;;18.63;70.63
75317;BME280;63913;51.492;10.368;2023-09-08T03:06:06;98814.91;;;18.67;70.10
75317;BME280;63913;51.492;10.368;2023-09-08T03:08:32;98811.47;;;18.61;70.01
75317;BME280;63913;51.492;10.368;2023-09-08T03:11:00;98817.53;;;18.57;70.22
75317;BME280;63913;51.492;10.368;2023-09-08T03:13:26;98804.53;;;18.55;70.29
75317;BME280;63913;51.492;10.368;2023-09-08T03:15:52;98809.75;;;18.54;70.20
75317;BME280;63913;51.492;10.368;2023-09-08T03:18:18;98803.66;;;18.55;70.52
75317;BME280;63913;51.492;10.368;2023-09-08T03:20:48;98803.66;;;18.52;70.09
75317;BME280;63913;51.492;10.368;2023-09-08T03:23:15;98804.53;;;18.54;70.03
75317;BME280;63913;51.492;10.368;2023-09-08T03:25:42;98802.78;;;18.50;69.91
75317;BME280;63913;51.492;10.368;2023-09-08T03:28:07;98801.91;;;18.58;69.64
75317;BME280;63913;51.492;10.368;2023-09-08T03:30:32;98804.56;;;18.48;70.11
75317;BME280;63913;51.492;10.368;2023-09-08T03:32:58;98796.72;;;18.57;69.35
75317;BME280;63913;51.492;10.368;2023-09-08T03:35:23;98796.72;;;18.61;69.31
75317;BME280;63913;51.492;10.368;2023-09-08T03:37:49;98798.41;;;18.65;69.23
75317;BME280;63913;51.492;10.368;2023-09-08T03:40:14;98793.19;;;18.65;68.62
75317;BME280;63913;51.492;10.368;2023-09-08T03:42:40;98797.56;;;18.62;69.17
75317;BME280;63913;51.492;10.368;2023-09-08T03:45:07;98796.72;;;18.61;69.39
75317;BME280;63913;51.492;10.368;2023-09-08T03:47:33;98791.50;;;18.64;69.16
75317;BME280;63913;51.492;10.368;2023-09-08T03:49:59;98789.75;;;18.59;68.92
75317;BME280;63913;51.492;10.368;2023-09-08T03:52:24;98799.31;;;18.60;69.15
75317;BME280;63913;51.492;10.368;2023-09-08T03:54:50;98790.63;;;18.61;69.19
75317;BME280;63913;51.492;10.368;2023-09-08T03:57:15;98783.72;;;18.46;69.30
75317;BME280;63913;51.492;10.368;2023-09-08T03:59:41;98786.28;;;18.51;69.49
75317;BME280;63913;51.492;10.368;2023-09-08T04:02:06;98786.31;;;18.49;69.70
75317;BME280;63913;51.492;10.368;2023-09-08T04:04:32;98795.84;;;18.50;69.29
75317;BME280;63913;51.492;10.368;2023-09-08T04:06:57;98788.94;;;18.48;68.77
75317;BME280;63913;51.492;10.368;2023-09-08T04:09:23;98789.81;;;18.48;68.77
75317;BME280;63913;51.492;10.368;2023-09-08T04:11:49;98786.38;;;18.39;68.79
75317;BME280;63913;51.492;10.368;2023-09-08T04:14:14;98788.97;;;18.36;69.17
75317;BME280;63913;51.492;10.368;2023-09-08T04:16:39;98783.78;;;18.34;69.52
75317;BME280;63913;51.492;10.368;2023-09-08T04:19:05;98784.66;;;18.25;69.78
75317;BME280;63913;51.492;10.368;2023-09-08T04:21:30;98788.13;;;18.29;69.61
75317;BME280;63913;51.492;10.368;2023-09-08T04:23:56;98792.47;;;18.25;69.51
75317;BME280;63913;51.492;10.368;2023-09-08T04:26:21;98787.31;;;18.24;69.46
75317;BME280;63913;51.492;10.368;2023-09-08T04:28:47;98785.53;;;18.26;69.63
75317;BME280;63913;51.492;10.368;2023-09-08T04:31:12;98787.28;;;18.27;69.47
75317;BME280;63913;51.492;10.368;2023-09-08T04:33:38;98792.50;;;18.24;69.55
75317;BME280;63913;51.492;10.368;2023-09-08T04:36:04;98788.19;;;18.12;70.18
75317;BME280;63913;51.492;10.368;2023-09-08T04:38:29;98796.00;;;18.11;70.18
75317;BME280;63913;51.492;10.368;2023-09-08T04:40:55;98793.41;;;18.11;70.29
75317;BME280;63913;51.492;10.368;2023-09-08T04:43:21;98794.28;;;18.13;70.35
75317;BME280;63913;51.492;10.368;2023-09-08T04:45:46;98789.03;;;18.17;70.32
75317;BME280;63913;51.492;10.368;2023-09-08T04:48:11;98786.47;;;18.14;70.42
75317;BME280;63913;51.492;10.368;2023-09-08T04:50:38;98787.34;;;18.12;70.44
75317;BME280;63913;51.492;10.368;2023-09-08T04:53:03;98784.72;;;18.12;70.63
75317;BME280;63913;51.492;10.368;2023-09-08T04:55:29;98779.56;;;18.07;70.90
75317;BME280;63913;51.492;10.368;2023-09-08T04:57:54;98786.47;;;18.13;70.85
75317;BME280;63913;51.492;10.368;2023-09-08T05:00:20;98789.94;;;18.10;71.04
75317;BME280;63913;51.492;10.368;2023-09-08T05:02:46;98794.28;;;18.08;70.99
75317;BME280;63913;51.492;10.368;2023-09-08T05:05:11;98789.91;;;18.16;70.86
75317;BME280;63913;51.492;10.368;2023-09-08T05:07:37;98792.50;;;18.18;70.89
75317;BME280;63913;51.492;10.368;2023-09-08T05:10:02;98796.88;;;18.10;71.07
75317;BME280;63913;51.492;10.368;2023-09-08T05:12:32;98794.28;;;18.16;70.98
75317;BME280;63913;51.492;10.368;2023-09-08T05:14:58;98800.38;;;18.04;71.65
75317;BME280;63913;51.492;10.368;2023-09-08T05:17:32;98803.84;;;18.02;71.43
75317;BME280;63913;51.492;10.368;2023-09-08T05:19:57;98795.16;;;18.06;71.39
75317;BME280;63913;51.492;10.368;2023-09-08T05:22:23;98805.56;;;18.03;71.14
75317;BME280;63913;51.492;10.368;2023-09-08T05:24:48;98810.78;;;17.93;71.75
75317;BME280;63913;51.492;10.368;2023-09-08T05:27:14;98807.38;;;17.69;72.73
75317;BME280;63913;51.492;10.368;2023-09-08T05:29:39;98807.34;;;17.60;73.11
75317;BME280;63913;51.492;10.368;2023-09-08T05:32:05;98813.44;;;17.51;73.52
75317;BME280;63913;51.492;10.368;2023-09-08T05:34:30;98816.03;;;17.46;73.94
75317;BME280;63913;51.492;10.368;2023-09-08T05:36:56;98813.41;;;17.36;74.79
75317;BME280;63913;51.492;10.368;2023-09-08T05:39:21;98817.78;;;17.34;75.14
75317;BME280;63913;51.492;10.368;2023-09-08T05:41:47;98812.56;;;17.31;74.82
75317;BME280;63913;51.492;10.368;2023-09-08T05:44:12;98813.44;;;17.31;74.89
75317;BME280;63913;51.492;10.368;2023-09-08T05:46:38;98818.63;;;17.16;75.87
75317;BME280;63913;51.492;10.368;2023-09-08T05:49:04;98824.66;;;17.27;75.42
75317;BME280;63913;51.492;10.368;2023-09-08T05:51:31;98816.88;;;17.38;75.08
75317;BME280;63913;51.492;10.368;2023-09-08T05:53:56;98812.56;;;17.37;75.42
75317;BME280;63913;51.492;10.368;2023-09-08T05:56:24;98813.41;;;17.55;74.91
75317;BME280;63913;51.492;10.368;2023-09-08T05:58:51;98808.22;;;17.68;74.23
75317;BME280;63913;51.492;10.368;2023-09-08T06:01:18;98803.03;;;17.77;73.98
75317;BME280;63913;51.492;10.368;2023-09-08T06:03:43;98815.16;;;17.87;73.81
75317;BME280;63913;51.492;10.368;2023-09-08T06:06:09;98814.28;;;17.91;73.98
75317;BME280;63913;51.492;10.368;2023-09-08T06:08:35;98806.47;;;17.91;73.74
75317;BME280;63913;51.492;10.368;2023-09-08T06:11:01;98811.63;;;18.00;73.54
75317;BME280;63913;51.492;10.368;2023-09-08T06:13:27;98804.72;;;18.04;73.85
75317;BME280;63913;51.492;10.368;2023-09-08T06:15:52;98788.22;;;18.08;73.41
75317;BME280;63913;51.492;10.368;2023-09-08T06:18:18;98801.22;;;18.15;73.30
75317;BME280;63913;51.492;10.368;2023-09-08T06:20:46;98802.91;;;18.16;73.76
75317;BME280;63913;51.492;10.368;2023-09-08T06:23:13;98800.31;;;18.16;73.66
75317;BME280;63913;51.492;10.368;2023-09-08T06:25:40;98799.41;;;18.25;73.54
75317;BME280;63913;51.492;10.368;2023-09-08T06:28:06;98803.75;;;18.27;73.37
75317;BME280;63913;51.492;10.368;2023-09-08T06:30:32;98803.75;;;18.32;73.38
75317;BME280;63913;51.492;10.368;2023-09-08T06:32:58;98802.88;;;18.36;73.21
75317;BME280;63913;51.492;10.368;2023-09-08T06:35:26;98804.56;;;18.43;73.04
75317;BME280;63913;51.492;10.368;2023-09-08T06:37:52;98799.34;;;18.45;72.84
75317;BME280;63913;51.492;10.368;2023-09-08T06:40:18;98803.69;;;18.47;72.94
75317;BME280;63913;51.492;10.368;2023-09-08T06:42:45;98799.31;;;18.54;72.82
75317;BME280;63913;51.492;10.368;2023-09-08T06:45:24;98795.84;;;18.58;73.30
75317;BME280;63913;51.492;10.368;2023-09-08T06:47:49;98798.44;;;18.62;72.95
75317;BME280;63913;51.492;10.368;2023-09-08T06:50:17;98795.81;;;18.67;72.48
75317;BME280;63913;51.492;10.368;2023-09-08T06:52:43;98796.66;;;18.69;72.76
75317;BME280;63913;51.492;10.368;2023-09-08T06:55:08;98798.38;;;18.73;72.82
75317;BME280;63913;51.492;10.368;2023-09-08T06:57:34;98796.63;;;18.75;71.74
75317;BME280;63913;51.492;10.368;2023-09-08T07:00:00;98804.41;;;18.81;71.62
75317;BME280;63913;51.492;10.368;2023-09-08T07:02:25;98802.66;;;18.85;72.10
75317;BME280;63913;51.492;10.368;2023-09-08T07:04:51;98800.03;;;18.88;71.77
75317;BME280;63913;51.492;10.368;2023-09-08T07:07:17;98793.91;;;18.92;71.41
75317;BME280;63913;51.492;10.368;2023-09-08T07:09:44;98805.16;;;19.00;71.22
75317;BME280;63913;51.492;10.368;2023-09-08T07:12:10;98806.03;;;19.03;70.90
75317;BME280;63913;51.492;10.368;2023-09-08T07:14:36;98805.97;;;19.10;71.05
75317;BME280;63913;51.492;10.368;2023-09-08T07:17:01;98804.19;;;19.16;69.96
75317;BME280;63913;51.492;10.368;2023-09-08T07:19:27;98801.56;;;19.19;70.33
75317;BME280;63913;51.492;10.368;2023-09-08T07:21:53;98804.13;;;19.24;69.58
75317;BME280;63913;51.492;10.368;2023-09-08T07:24:18;98797.16;;;19.23;69.41
75317;BME280;63913;51.492;10.368;2023-09-08T07:26:44;98804.09;;;19.27;68.91
75317;BME280;63913;51.492;10.368;2023-09-08T07:29:09;98799.75;;;19.29;68.80
75317;BME280;63913;51.492;10.368;2023-09-08T07:31:35;98808.41;;;19.34;69.08
75317;BME280;63913;51.492;10.368;2023-09-08T07:34:01;98807.50;;;19.36;68.53
75317;BME280;63913;51.492;10.368;2023-09-08T07:36:26;98803.13;;;19.38;67.94
75317;BME280;63913;51.492;10.368;2023-09-08T07:38:52;98803.09;;;19.43;68.44
75317;BME280;63913;51.492;10.368;2023-09-08T07:41:18;98803.09;;;19.44;67.67
75317;BME280;63913;51.492;10.368;2023-09-08T07:43:43;98795.25;;;19.46;67.78
75317;BME280;63913;51.492;10.368;2023-09-08T07:46:11;98801.28;;;19.54;67.40
75317;BME280;63913;51.492;10.368;2023-09-08T07:48:37;98804.75;;;19.59;67.58
75317;BME280;63913;51.492;10.368;2023-09-08T07:51:02;98798.66;;;19.62;67.62
75317;BME280;63913;51.492;10.368;2023-09-08T07:53:28;98795.97;;;19.66;67.11
75317;BME280;63913;51.492;10.368;2023-09-08T07:55:53;98801.13;;;19.72;68.07
75317;BME280;63913;51.492;10.368;2023-09-08T07:58:19;98802.00;;;19.74;67.77
75317;BME280;63913;51.492;10.368;2023-09-08T08:00:44;98791.50;;;19.79;67.48
75317;BME280;63913;51.492;10.368;2023-09-08T08:03:09;98802.72;;;19.89;67.97
75317;BME280;63913;51.492;10.368;2023-09-08T08:05:35;98793.09;;;19.94;68.45
75317;BME280;63913;51.492;10.368;2023-09-08T08:08:01;98803.47;;;20.00;68.03
75317;BME280;63913;51.492;10.368;2023-09-08T08:10:26;98800.78;;;20.06;67.65
75317;BME280;63913;51.492;10.368;2023-09-08T08:12:52;98793.81;;;20.09;67.10
75317;BME280;63913;51.492;10.368;2023-09-08T08:15:19;98798.06;;;20.16;66.22
75317;BME280;63913;51.492;10.368;2023-09-08T08:17:46;98804.09;;;20.22;66.33
75317;BME280;63913;51.492;10.368;2023-09-08T08:20:11;98810.16;;;20.25;66.36
75317;BME280;63913;51.492;10.368;2023-09-08T08:22:45;98803.13;;;20.30;66.47
75317;BME280;63913;51.492;10.368;2023-09-08T08:25:11;98798.78;;;20.34;66.16
75317;BME280;63913;51.492;10.368;2023-09-08T08:27:40;98810.00;;;20.40;66.31
75317;BME280;63913;51.492;10.368;2023-09-08T08:30:06;98802.06;;;20.48;66.28
75317;BME280;63913;51.492;10.368;2023-09-08T08:32:33;98807.28;;;20.51;65.61
75317;BME280;63913;51.492;10.368;2023-09-08T08:34:58;98809.84;;;20.52;66.08
75317;BME280;63913;51.492;10.368;2023-09-08T08:37:24;98801.97;;;20.55;65.91
75317;BME280;63913;51.492;10.368;2023-09-08T08:39:49;98789.75;;;20.58;66.46
75317;BME280;63913;51.492;10.368;2023-09-08T08:42:14;98801.88;;;20.62;66.66
75317;BME280;63913;51.492;10.368;2023-09-08T08:44:41;98789.66;;;20.65;66.32
75317;BME280;63913;51.492;10.368;2023-09-08T08:47:08;98786.97;;;20.71;66.17
75317;BME280;63913;51.492;10.368;2023-09-08T08:49:35;98799.91;;;20.79;65.91
75317;BME280;63913;51.492;10.368;2023-09-08T08:52:01;98798.78;;;20.98;65.24
75317;BME280;63913;51.492;10.368;2023-09-08T08:54:34;98796.16;;;21.00;65.47
75317;BME280;63913;51.492;10.368;2023-09-08T08:57:01;98797.81;;;21.05;66.50
75317;BME280;63913;51.492;10.368;2023-09-08T08:59:27;98806.41;;;21.12;65.98
75317;BME280;63913;51.492;10.368;2023-09-08T09:01:53;98796.66;;;21.24;64.29
75317;BME280;63913;51.492;10.368;2023-09-08T09:04:19;98797.38;;;21.34;64.33
75317;BME280;63913;51.492;10.368;2023-09-08T09:06:45;98792.81;;;21.47;63.18
75317;BME280;63913;51.492;10.368;2023-09-08T09:09:11;98797.81;;;21.59;62.28
75317;BME280;63913;51.492;10.368;2023-09-08T09:11:37;98785.41;;;21.72;62.18
75317;BME280;63913;51.492;10.368;2023-09-08T09:14:02;98799.13;;;21.84;63.11
75317;BME280;63913;51.492;10.368;2023-09-08T09:16:29;98790.16;;;21.99;61.21
75317;BME280;63913;51.492;10.368;2023-09-08T09:18:57;98795.19;;;22.10;60.68
75317;BME280;63913;51.492;10.368;2023-09-08T09:21:23;98795.00;;;22.20;60.22
75317;BME280;63913;51.492;10.368;2023-09-08T09:23:48;98792.97;;;22.33;58.68
75317;BME280;63913;51.492;10.368;2023-09-08T09:26:25;98793.63;;;22.45;58.87
75317;BME280;63913;51.492;10.368;2023-09-08T09:28:51;98781.75;;;22.68;58.28
75317;BME280;63913;51.492;10.368;2023-09-08T09:31:22;98779.84;;;22.77;57.66
75317;BME280;63913;51.492;10.368;2023-09-08T09:34:01;98782.22;;;22.87;56.40
75317;BME280;63913;51.492;10.368;2023-09-08T09:36:26;98783.84;;;22.94;56.08
75317;BME280;63913;51.492;10.368;2023-09-08T09:38:52;98775.81;;;23.01;55.83
75317;BME280;63913;51.492;10.368;2023-09-08T09:41:17;98785.22;;;23.10;57.31
75317;BME280;63913;51.492;10.368;2023-09-08T09:43:42;98780.69;;;23.16;55.10
75317;BME280;63913;51.492;10.368;2023-09-08T09:46:09;98769.91;;;23.27;52.11
75317;BME280;63913;51.492;10.368;2023-09-08T09:48:34;98769.28;;;23.53;51.32
75317;BME280;63913;51.492;10.368;2023-09-08T09:51:15;98776.00;;;23.65;51.86
75317;BME280;63913;51.492;10.368;2023-09-08T09:53:41;98771.31;;;23.76;51.04
75317;BME280;63913;51.492;10.368;2023-09-08T09:56:08;98777.38;;;23.79;50.91
75317;BME280;63913;51.492;10.368;2023-09-08T09:58:35;98774.47;;;23.90;52.26
75317;BME280;63913;51.492;10.368;2023-09-08T10:01:01;98768.13;;;23.97;50.62
75317;BME280;63913;51.492;10.368;2023-09-08T10:03:27;98773.03;;;24.09;49.95
75317;BME280;63913;51.492;10.368;2023-09-08T10:05:52;98781.53;;;24.20;51.37
75317;BME280;63913;51.492;10.368;2023-09-08T10:08:18;98780.19;;;24.37;50.64
75317;BME280;63913;51.492;10.368;2023-09-08T10:10:45;98781.63;;;24.48;50.11
75317;BME280;63913;51.492;10.368;2023-09-08T10:13:12;98775.16;;;24.58;48.42
75317;BME280;63913;51.492;10.368;2023-09-08T10:15:40;98777.47;;;24.69;49.52
75317;BME280;63913;51.492;10.368;2023-09-08T10:18:09;98773.66;;;24.79;48.33
75317;BME280;63913;51.492;10.368;2023-09-08T10:20:36;98771.53;;;24.90;48.22
75317;BME280;63913;51.492;10.368;2023-09-08T10:23:07;98772.78;;;25.08;47.80
75317;BME280;63913;51.492;10.368;2023-09-08T10:25:42;98761.78;;;25.22;46.27
75317;BME280;63913;51.492;10.368;2023-09-08T10:28:09;98758.78;;;25.34;45.31
75317;BME280;63913;51.492;10.368;2023-09-08T10:30:35;98763.78;;;25.41;44.18
75317;BME280;63913;51.492;10.368;2023-09-08T10:33:01;98749.44;;;25.50;46.12
75317;BME280;63913;51.492;10.368;2023-09-08T10:35:28;98748.22;;;25.62;46.82
75317;BME280;63913;51.492;10.368;2023-09-08T10:40:51;98750.16;;;25.81;46.82
75317;BME280;63913;51.492;10.368;2023-09-08T10:43:18;98749.31;;;26.04;47.99
75317;BME280;63913;51.492;10.368;2023-09-08T10:45:46;98744.28;;;26.21;46.09
75317;BME280;63913;51.492;10.368;2023-09-08T10:48:12;98730.84;;;26.29;46.30
75317;BME280;63913;51.492;10.368;2023-09-08T10:50:40;98740.41;;;26.33;45.15
75317;BME280;63913;51.492;10.368;2023-09-08T10:53:07;98740.91;;;26.43;45.01
75317;BME280;63913;51.492;10.368;2023-09-08T10:55:44;98743.94;;;26.55;45.16
75317;BME280;63913;51.492;10.368;2023-09-08T10:58:20;98744.38;;;26.67;44.91
75317;BME280;63913;51.492;10.368;2023-09-08T11:00:50;98749.56;;;26.68;45.39
75317;BME280;63913;51.492;10.368;2023-09-08T11:03:27;98752.00;;;26.74;43.35
75317;BME280;63913;51.492;10.368;2023-09-08T11:05:53;98734.94;;;26.83;45.43
75317;BME280;63913;51.492;10.368;2023-09-08T11:08:19;98736.41;;;26.91;43.03
75317;BME280;63913;51.492;10.368;2023-09-08T11:10:45;98733.63;;;26.94;43.70
75317;BME280;63913;51.492;10.368;2023-09-08T11:13:10;98738.41;;;27.07;44.73
75317;BME280;63913;51.492;10.368;2023-09-08T11:15:37;98740.69;;;27.16;43.62
75317;BME280;63913;51.492;10.368;2023-09-08T11:18:06;98741.25;;;27.24;42.49
75317;BME280;63913;51.492;10.368;2023-09-08T11:20:32;98731.66;;;27.21;42.54
75317;BME280;63913;51.492;10.368;2023-09-08T11:22:57;98734.31;;;27.42;44.16
75317;BME280;63913;51.492;10.368;2023-09-08T11:25:23;98723.28;;;27.52;41.91
75317;BME280;63913;51.492;10.368;2023-09-08T11:27:48;98728.28;;;27.60;43.22
75317;BME280;63913;51.492;10.368;2023-09-08T11:30:15;98720.81;;;27.69;42.93
75317;BME280;63913;51.492;10.368;2023-09-08T11:32:41;98718.81;;;27.75;41.84
75317;BME280;63913;51.492;10.368;2023-09-08T11:35:08;98724.78;;;27.80;40.98
75317;BME280;63913;51.492;10.368;2023-09-08T11:37:36;98722.72;;;27.86;41.34
75317;BME280;63913;51.492;10.368;2023-09-08T11:40:03;98724.06;;;27.96;40.19
75317;BME280;63913;51.492;10.368;2023-09-08T11:42:34;98721.75;;;28.07;40.77
75317;BME280;63913;51.492;10.368;2023-09-08T11:45:00;98722.34;;;28.14;40.99
75317;BME280;63913;51.492;10.368;2023-09-08T11:47:25;98723.91;;;28.20;40.80
75317;BME280;63913;51.492;10.368;2023-09-08T11:49:52;98731.63;;;28.24;41.28
75317;BME280;63913;51.492;10.368;2023-09-08T11:52:17;98724.47;;;28.26;40.29
75317;BME280;63913;51.492;10.368;2023-09-08T11:54:43;98722.84;;;28.42;40.37
75317;BME280;63913;51.492;10.368;2023-09-08T11:57:09;98724.50;;;28.45;40.18
75317;BME280;63913;51.492;10.368;2023-09-08T11:59:37;98718.69;;;28.56;41.05
75317;BME280;63913;51.492;10.368;2023-09-08T12:02:03;98716.69;;;28.61;40.33
75317;BME280;63913;51.492;10.368;2023-09-08T12:04:29;98710.97;;;28.70;39.49
75317;BME280;63913;51.492;10.368;2023-09-08T12:06:54;98712.59;;;28.72;38.91
75317;BME280;63913;51.492;10.368;2023-09-08T12:09:23;98718.28;;;28.83;39.95
75317;BME280;63913;51.492;10.368;2023-09-08T12:11:49;98707.38;;;28.90;39.76
75317;BME280;63913;51.492;10.368;2023-09-08T12:14:15;98702.09;;;28.90;39.43
75317;BME280;63913;51.492;10.368;2023-09-08T12:16:41;98703.91;;;29.06;39.64
75317;BME280;63913;51.492;10.368;2023-09-08T12:19:08;98697.44;;;29.12;39.14
75317;BME280;63913;51.492;10.368;2023-09-08T12:21:54;98701.03;;;29.11;38.51
75317;BME280;63913;51.492;10.368;2023-09-08T12:24:47;98701.28;;;29.23;37.62
75317;BME280;63913;51.492;10.368;2023-09-08T12:27:14;98695.06;;;29.25;37.22
75317;BME280;63913;51.492;10.368;2023-09-08T12:29:40;98691.09;;;29.33;38.28
75317;BME280;63913;51.492;10.368;2023-09-08T12:32:05;98691.25;;;29.47;36.71
75317;BME280;63913;51.492;10.368;2023-09-08T12:34:31;98688.75;;;29.44;35.87
75317;BME280;63913;51.492;10.368;2023-09-08T12:36:56;98684.97;;;29.50;37.50
75317;BME280;63913;51.492;10.368;2023-09-08T12:39:21;98679.34;;;29.56;37.33
75317;BME280;63913;51.492;10.368;2023-09-08T12:41:47;98677.38;;;29.59;36.35
75317;BME280;63913;51.492;10.368;2023-09-08T12:44:12;98671.47;;;29.54;36.68
75317;BME280;63913;51.492;10.368;2023-09-08T12:46:37;98669.25;;;29.63;36.06
75317;BME280;63913;51.492;10.368;2023-09-08T12:49:03;98660.91;;;29.70;36.05